createdAt,value
2023-02-28T00:00:31.016Z,1.72
2023-02-28T00:02:57.568Z,1.71
2023-02-28T00:05:25.908Z,1.69
2023-02-28T00:07:52.877Z,1.68
2023-02-28T00:10:23.748Z,1.65
2023-02-28T00:12:54.968Z,1.63
2023-02-28T00:15:22.422Z,1.63
2023-02-28T00:17:48.889Z,1.63
2023-02-28T00:20:16.643Z,1.63
2023-02-28T00:22:48.109Z,1.62
2023-02-28T00:25:17.301Z,1.59
2023-02-28T00:27:44.449Z,1.60
2023-02-28T00:30:15.078Z,1.56
2023-02-28T00:32:41.639Z,1.52
2023-02-28T00:35:08.866Z,1.55
2023-02-28T00:37:35.698Z,1.57
2023-02-28T00:40:02.361Z,1.58
2023-02-28T00:42:28.884Z,1.54
2023-02-28T00:44:55.360Z,1.52
2023-02-28T00:47:21.856Z,1.51
2023-02-28T00:49:48.669Z,1.48
2023-02-28T00:52:15.232Z,1.46
2023-02-28T00:54:41.694Z,1.42
2023-02-28T00:57:08.225Z,1.40
2023-02-28T00:59:34.758Z,1.40
2023-02-28T01:02:01.365Z,1.35
2023-02-28T01:04:28.034Z,1.31
2023-02-28T01:06:54.528Z,1.27
2023-02-28T01:09:21.038Z,1.26
2023-02-28T01:11:47.545Z,1.27
2023-02-28T01:14:16.237Z,1.25
2023-02-28T01:16:42.890Z,1.20
2023-02-28T01:19:09.509Z,1.17
2023-02-28T01:21:36.641Z,1.12
2023-02-28T01:24:04.968Z,1.07
2023-02-28T01:26:31.885Z,1.01
2023-02-28T01:31:52.880Z,0.93
2023-02-28T01:34:20.453Z,0.88
2023-02-28T01:36:46.932Z,0.87
2023-02-28T01:39:13.869Z,0.85
2023-02-28T01:41:40.845Z,0.82
2023-02-28T01:44:46.528Z,0.84
2023-02-28T01:47:13.202Z,0.82
2023-02-28T01:49:40.725Z,0.76
2023-02-28T01:52:08.200Z,0.76
2023-02-28T01:54:35.991Z,0.72
2023-02-28T01:57:07.182Z,0.68
2023-02-28T01:59:47.242Z,0.65
2023-02-28T02:02:15.218Z,0.67
2023-02-28T02:04:59.674Z,0.59
2023-02-28T02:07:27.550Z,0.55
2023-02-28T02:10:19.013Z,0.40
2023-02-28T02:13:19.584Z,0.38
2023-02-28T02:16:20.112Z,0.38
2023-02-28T02:18:58.606Z,0.36
2023-02-28T02:22:06.435Z,0.34
2023-02-28T02:24:41.914Z,0.32
2023-02-28T02:27:26.050Z,0.25
2023-02-28T02:30:20.437Z,0.26
2023-02-28T02:33:33.578Z,0.25
2023-02-28T02:36:09.198Z,0.25
2023-02-28T02:38:38.862Z,0.19
2023-02-28T02:41:09.434Z,0.11
2023-02-28T02:43:40.121Z,0.08
2023-02-28T02:46:21.054Z,0.04
2023-02-28T02:48:49.260Z,-0.01
2023-02-28T02:51:19.852Z,0.01
2023-02-28T02:53:52.109Z,0.00
2023-02-28T02:56:24.116Z,-0.02
2023-02-28T02:58:52.622Z,0.00
2023-02-28T03:01:29.148Z,-0.06
2023-02-28T03:04:02.690Z,-0.10
2023-02-28T03:06:29.647Z,-0.13
2023-02-28T03:08:56.205Z,-0.13
2023-02-28T03:11:22.805Z,-0.14
2023-02-28T03:14:01.512Z,-0.23
2023-02-28T03:16:34.701Z,-0.28
2023-02-28T03:19:03.776Z,-0.40
2023-02-28T03:21:49.048Z,-0.47
2023-02-28T03:24:43.971Z,-0.47
2023-02-28T03:27:16.161Z,-0.41
2023-02-28T03:29:52.285Z,-0.42
2023-02-28T03:32:22.778Z,-0.44
2023-02-28T03:34:56.760Z,-0.46
2023-02-28T03:37:25.764Z,-0.50
2023-02-28T03:40:01.924Z,-0.55
2023-02-28T03:42:32.064Z,-0.54
2023-02-28T03:45:03.220Z,-0.57
2023-02-28T03:47:51.934Z,-0.60
2023-02-28T03:50:23.433Z,-0.57
2023-02-28T03:53:02.246Z,-0.62
2023-02-28T03:55:38.285Z,-0.71
2023-02-28T03:58:13.700Z,-0.82
2023-02-28T04:00:47.787Z,-0.88
2023-02-28T04:03:15.019Z,-0.87
2023-02-28T04:05:55.461Z,-0.82
2023-02-28T04:08:23.047Z,-0.79
2023-02-28T04:10:56.114Z,-0.77
2023-02-28T04:13:22.642Z,-0.76
2023-02-28T04:15:49.116Z,-0.84
2023-02-28T04:18:15.597Z,-0.94
2023-02-28T04:20:42.222Z,-0.98
2023-02-28T04:23:08.737Z,-1.08
2023-02-28T04:25:35.212Z,-1.08
2023-02-28T04:28:01.687Z,-1.06
2023-02-28T04:30:28.308Z,-1.02
2023-02-28T04:32:54.740Z,-1.03
2023-02-28T04:35:21.220Z,-1.05
2023-02-28T04:37:47.666Z,-1.08
2023-02-28T04:40:14.241Z,-1.19
2023-02-28T04:42:40.741Z,-1.20
2023-02-28T04:45:07.984Z,-1.21
2023-02-28T04:47:34.478Z,-1.18
2023-02-28T04:50:01.022Z,-1.22
2023-02-28T04:52:28.690Z,-1.27
2023-02-28T04:54:55.170Z,-1.26
2023-02-28T04:57:21.691Z,-1.24
2023-02-28T04:59:48.194Z,-1.23
2023-02-28T05:02:14.737Z,-1.19
2023-02-28T05:04:41.306Z,-1.21
2023-02-28T05:07:07.908Z,-1.19
2023-02-28T05:09:34.376Z,-1.19
2023-02-28T05:12:00.920Z,-1.14
2023-02-28T05:14:27.421Z,-1.16
2023-02-28T05:16:53.854Z,-1.16
2023-02-28T05:19:22.218Z,-1.21
2023-02-28T05:21:54.333Z,-1.26
2023-02-28T05:24:23.832Z,-1.23
2023-02-28T05:26:53.031Z,-1.26
2023-02-28T05:29:20.114Z,-1.31
2023-02-28T05:31:47.074Z,-1.34
2023-02-28T05:34:13.741Z,-1.33
2023-02-28T05:36:40.485Z,-1.31
2023-02-28T05:39:08.526Z,-1.32
2023-02-28T05:41:35.067Z,-1.43
2023-02-28T05:44:04.297Z,-1.34
2023-02-28T05:46:30.761Z,-1.34
2023-02-28T05:48:58.849Z,-1.39
2023-02-28T05:51:25.441Z,-1.41
2023-02-28T05:53:52.150Z,-1.45
2023-02-28T05:56:18.662Z,-1.47
2023-02-28T05:58:45.158Z,-1.51
2023-02-28T06:01:24.340Z,-1.59
2023-02-28T06:03:50.979Z,-1.57
2023-02-28T06:06:17.607Z,-1.55
2023-02-28T06:08:45.552Z,-1.56
2023-02-28T06:11:12.293Z,-1.55
2023-02-28T06:13:38.787Z,-1.57
2023-02-28T06:16:05.666Z,-1.61
2023-02-28T06:18:32.164Z,-1.62
2023-02-28T06:20:58.721Z,-1.58
2023-02-28T06:23:25.238Z,-1.60
2023-02-28T06:25:51.766Z,-1.64
2023-02-28T06:28:18.293Z,-1.69
2023-02-28T06:30:46.510Z,-1.68
2023-02-28T06:33:13.217Z,-1.67
2023-02-28T06:35:39.999Z,-1.68
2023-02-28T06:38:06.726Z,-1.74
2023-02-28T06:40:36.027Z,-1.72
2023-02-28T06:43:02.959Z,-1.78
2023-02-28T06:45:29.720Z,-1.77
2023-02-28T06:47:56.253Z,-1.70
2023-02-28T06:50:22.781Z,-1.63
2023-02-28T06:52:49.274Z,-1.60
2023-02-28T06:55:15.769Z,-1.57
2023-02-28T06:57:42.219Z,-1.53
2023-02-28T07:00:10.257Z,-1.52
2023-02-28T07:02:38.391Z,-1.50
2023-02-28T07:05:06.410Z,-1.40
2023-02-28T07:07:33.464Z,-1.33
2023-02-28T07:10:00.009Z,-1.28
2023-02-28T07:12:26.443Z,-1.26
2023-02-28T07:14:52.999Z,-1.23
2023-02-28T07:17:19.463Z,-1.19
2023-02-28T07:19:46.078Z,-1.13
2023-02-28T07:22:14.300Z,-1.12
2023-02-28T07:24:42.393Z,-1.12
2023-02-28T07:27:08.884Z,-0.99
2023-02-28T07:29:35.359Z,-0.91
2023-02-28T07:32:02.086Z,-0.93
2023-02-28T07:34:28.565Z,-0.86
2023-02-28T07:36:55.183Z,-0.78
2023-02-28T07:39:22.916Z,-0.73
2023-02-28T07:41:49.484Z,-0.65
2023-02-28T07:44:16.150Z,-0.57
2023-02-28T07:46:42.698Z,-0.50
2023-02-28T07:49:09.169Z,-0.39
2023-02-28T07:51:35.622Z,-0.29
2023-02-28T07:54:02.277Z,-0.19
2023-02-28T07:56:29.102Z,-0.11
2023-02-28T07:58:55.988Z,-0.02
2023-02-28T08:01:22.810Z,0.11
2023-02-28T08:03:49.532Z,0.22
2023-02-28T08:06:20.002Z,0.33
2023-02-28T08:08:46.977Z,0.43
2023-02-28T08:11:14.006Z,0.60
2023-02-28T08:13:40.541Z,0.73
2023-02-28T08:16:07.315Z,0.87
2023-02-28T08:18:34.027Z,1.00
2023-02-28T08:21:00.976Z,1.15
2023-02-28T08:23:27.490Z,1.26
2023-02-28T08:25:56.121Z,1.38
2023-02-28T08:28:26.715Z,1.47
2023-02-28T08:30:54.626Z,1.59
2023-02-28T08:33:21.305Z,1.70
2023-02-28T08:35:47.899Z,1.80
2023-02-28T08:38:14.422Z,1.90
2023-02-28T08:40:41.571Z,1.99
2023-02-28T08:43:08.061Z,2.09
2023-02-28T08:45:34.650Z,2.18
2023-02-28T08:48:01.124Z,2.27
2023-02-28T08:50:27.635Z,2.39
2023-02-28T08:52:54.112Z,2.47
2023-02-28T08:55:20.680Z,2.56
2023-02-28T08:57:47.123Z,2.68
2023-02-28T09:00:14.820Z,2.72
2023-02-28T09:02:41.716Z,2.91
2023-02-28T09:05:09.347Z,3.02
2023-02-28T09:07:35.849Z,3.15
2023-02-28T09:10:02.373Z,3.25
2023-02-28T09:12:34.636Z,3.33
2023-02-28T09:15:01.132Z,3.37
2023-02-28T09:17:30.724Z,3.50
2023-02-28T09:19:58.065Z,3.60
2023-02-28T09:22:24.739Z,3.73
2023-02-28T09:24:51.168Z,3.80
2023-02-28T09:27:17.745Z,3.87
2023-02-28T09:29:44.255Z,4.01
2023-02-28T09:32:10.958Z,4.16
2023-02-28T09:34:38.557Z,4.21
2023-02-28T09:37:05.588Z,4.31
2023-02-28T09:39:32.705Z,4.41
2023-02-28T09:41:59.480Z,4.47
2023-02-28T09:44:37.560Z,4.58
2023-02-28T09:47:15.603Z,4.72
2023-02-28T09:49:47.251Z,4.84
2023-02-28T09:52:20.300Z,4.97
2023-02-28T09:54:46.928Z,5.08
2023-02-28T09:57:37.571Z,5.19
2023-02-28T10:00:18.238Z,5.26
2023-02-28T10:03:14.644Z,5.37
2023-02-28T10:05:56.239Z,5.45
2023-02-28T10:08:34.778Z,5.56
2023-02-28T10:11:08.563Z,5.55
2023-02-28T10:13:46.962Z,5.60
2023-02-28T10:16:26.373Z,5.75
2023-02-28T10:19:03.709Z,5.79
2023-02-28T10:21:39.719Z,5.77
2023-02-28T10:24:20.046Z,5.71
2023-02-28T10:26:48.309Z,5.61
2023-02-28T10:29:15.795Z,5.79
2023-02-28T10:31:42.561Z,5.76
2023-02-28T10:34:13.624Z,5.99
2023-02-28T10:36:40.831Z,6.00
2023-02-28T10:39:35.281Z,6.27
2023-02-28T10:42:01.725Z,6.50
2023-02-28T10:44:28.252Z,6.76
2023-02-28T10:46:54.834Z,6.93
2023-02-28T10:49:23.930Z,7.17
2023-02-28T10:51:55.004Z,7.33
2023-02-28T10:54:32.400Z,7.35
2023-02-28T10:57:15.506Z,7.25
2023-02-28T10:59:42.775Z,7.28
2023-02-28T11:05:25.030Z,7.54
2023-02-28T11:07:57.714Z,7.60
2023-02-28T11:10:30.921Z,7.71
2023-02-28T11:12:59.765Z,7.80
2023-02-28T11:15:28.888Z,8.01
2023-02-28T11:17:57.500Z,8.03
2023-02-28T11:20:27.692Z,7.96
2023-02-28T11:22:55.973Z,8.17
2023-02-28T11:25:27.179Z,8.66
2023-02-28T11:28:03.009Z,8.79
2023-02-28T11:30:43.145Z,8.96
2023-02-28T11:33:30.723Z,9.08
2023-02-28T11:36:05.318Z,8.71
2023-02-28T11:38:35.962Z,8.87
2023-02-28T11:41:08.385Z,9.25
2023-02-28T11:43:40.890Z,9.40
2023-02-28T11:46:18.676Z,8.92
2023-02-28T11:48:54.250Z,8.96
2023-02-28T11:51:34.602Z,9.23
2023-02-28T11:54:25.860Z,9.69
2023-02-28T11:57:01.284Z,9.99
2023-02-28T11:59:42.920Z,10.01
2023-02-28T12:02:35.035Z,10.20
2023-02-28T12:05:29.154Z,10.17
2023-02-28T12:07:58.568Z,10.66
2023-02-28T12:10:36.518Z,10.79
2023-02-28T12:13:16.557Z,11.02
2023-02-28T12:15:55.498Z,11.35
2023-02-28T12:18:43.371Z,11.45
2023-02-28T12:21:19.104Z,11.57
2023-02-28T12:24:03.215Z,11.72
2023-02-28T12:26:40.259Z,11.77
2023-02-28T12:29:28.148Z,11.90
2023-02-28T12:32:02.871Z,12.28
2023-02-28T12:34:40.581Z,12.45
2023-02-28T12:37:14.738Z,12.80
2023-02-28T12:39:55.954Z,13.13
2023-02-28T12:42:34.785Z,12.94
2023-02-28T12:45:23.279Z,13.45
2023-02-28T12:47:58.239Z,13.65
2023-02-28T12:50:26.328Z,13.19
2023-02-28T12:53:06.727Z,13.24
2023-02-28T12:55:41.966Z,13.88
2023-02-28T12:58:33.532Z,14.39
2023-02-28T13:01:12.031Z,15.09
2023-02-28T13:03:47.635Z,15.07
2023-02-28T13:06:42.203Z,15.18
2023-02-28T13:09:13.483Z,15.10
2023-02-28T13:11:48.772Z,15.50
2023-02-28T13:14:36.812Z,15.14
2023-02-28T13:17:15.256Z,14.56
2023-02-28T13:19:52.764Z,15.02
2023-02-28T13:22:28.976Z,14.93
2023-02-28T13:24:57.068Z,14.58
2023-02-28T13:27:34.457Z,13.92
2023-02-28T13:30:01.474Z,13.96
2023-02-28T13:32:34.048Z,14.49
2023-02-28T13:35:00.465Z,15.17
2023-02-28T13:37:26.941Z,15.62
2023-02-28T13:39:54.487Z,16.20
2023-02-28T13:42:29.710Z,16.85
2023-02-28T13:45:02.211Z,16.80
2023-02-28T13:47:36.056Z,16.93
2023-02-28T13:50:27.142Z,16.77
2023-02-28T13:53:02.878Z,17.43
2023-02-28T13:55:54.044Z,17.66
2023-02-28T13:58:45.935Z,17.80
2023-02-28T14:01:37.299Z,18.38
2023-02-28T14:04:41.493Z,18.61
2023-02-28T14:07:09.534Z,18.89
2023-02-28T14:09:35.935Z,18.46
2023-02-28T14:12:40.049Z,18.30
2023-02-28T14:15:28.405Z,18.74
2023-02-28T14:17:57.397Z,18.36
2023-02-28T14:20:27.469Z,18.51
2023-02-28T14:23:02.350Z,18.42
2023-02-28T14:25:36.950Z,18.71
2023-02-28T14:28:47.997Z,18.90
2023-02-28T14:31:26.649Z,19.05
2023-02-28T14:34:11.413Z,18.47
2023-02-28T14:36:41.785Z,18.58
2023-02-28T14:39:12.707Z,18.87
2023-02-28T14:41:41.204Z,18.55
2023-02-28T14:44:15.541Z,18.33
2023-02-28T14:46:43.552Z,17.78
2023-02-28T14:49:37.798Z,16.75
2023-02-28T14:52:12.262Z,15.50
2023-02-28T14:54:40.286Z,14.94
2023-02-28T14:57:07.223Z,14.35
2023-02-28T14:59:35.738Z,14.05
2023-02-28T15:02:24.176Z,13.76
2023-02-28T15:05:19.983Z,13.63
2023-02-28T15:07:48.740Z,13.49
2023-02-28T15:10:22.209Z,13.35
2023-02-28T15:12:54.245Z,13.19
2023-02-28T15:15:28.158Z,12.95
2023-02-28T15:18:05.284Z,12.56
2023-02-28T15:20:33.933Z,12.46
2023-02-28T15:23:01.012Z,12.50
2023-02-28T15:25:27.990Z,12.41
2023-02-28T15:27:57.209Z,12.23
2023-02-28T15:30:30.284Z,11.99
2023-02-28T15:33:12.423Z,11.83
2023-02-28T15:35:39.237Z,11.67
2023-02-28T15:38:26.112Z,11.36
2023-02-28T15:40:59.001Z,11.33
2023-02-28T15:43:34.346Z,11.20
2023-02-28T15:46:02.531Z,10.86
2023-02-28T15:48:32.930Z,10.72
2023-02-28T15:51:02.275Z,10.54
2023-02-28T15:53:36.808Z,10.24
2023-02-28T15:56:06.900Z,10.12
2023-02-28T15:58:35.965Z,9.83
2023-02-28T16:01:07.827Z,9.67
2023-02-28T16:03:45.180Z,9.44
2023-02-28T16:06:34.812Z,9.32
2023-02-28T16:09:01.760Z,9.13
2023-02-28T16:11:29.067Z,8.94
2023-02-28T16:13:55.901Z,8.66
2023-02-28T16:16:26.326Z,8.59
2023-02-28T16:18:58.537Z,8.39
2023-02-28T16:21:26.331Z,8.28
2023-02-28T16:23:52.803Z,8.18
2023-02-28T16:26:25.949Z,8.01
2023-02-28T16:28:53.177Z,7.88
2023-02-28T16:31:20.057Z,7.85
2023-02-28T16:33:47.460Z,7.78
2023-02-28T16:36:20.544Z,7.72
2023-02-28T16:38:47.085Z,7.65
2023-02-28T16:41:19.747Z,7.59
2023-02-28T16:43:49.350Z,7.47
2023-02-28T16:46:17.608Z,7.37
2023-02-28T16:48:46.219Z,7.34
2023-02-28T16:51:16.720Z,7.23
2023-02-28T16:53:44.496Z,7.21
2023-02-28T16:56:24.147Z,7.17
2023-02-28T16:58:51.930Z,7.10
2023-02-28T17:01:22.725Z,7.04
2023-02-28T17:03:50.274Z,6.93
2023-02-28T17:06:20.838Z,6.90
2023-02-28T17:08:47.486Z,6.85
2023-02-28T17:11:14.007Z,6.81
2023-02-28T17:13:40.529Z,6.74
2023-02-28T17:16:10.389Z,6.70
2023-02-28T17:18:37.387Z,6.64
2023-02-28T17:21:03.981Z,6.59
2023-02-28T17:23:30.445Z,6.55
2023-02-28T17:25:58.172Z,6.50
2023-02-28T17:28:25.191Z,6.43
2023-02-28T17:30:52.037Z,6.37
2023-02-28T17:33:18.688Z,6.29
2023-02-28T17:35:45.285Z,6.27
2023-02-28T17:38:20.203Z,6.20
2023-02-28T17:40:46.704Z,6.13
2023-02-28T17:43:13.334Z,6.09
2023-02-28T17:45:39.869Z,6.03
2023-02-28T17:48:07.119Z,5.95
2023-02-28T17:50:34.138Z,5.93
2023-02-28T17:53:00.867Z,5.90
2023-02-28T17:55:27.449Z,5.84
2023-02-28T17:57:53.945Z,5.79
2023-02-28T18:00:24.824Z,5.75
2023-02-28T18:02:52.043Z,5.73
2023-02-28T18:05:18.801Z,5.70
2023-02-28T18:07:45.560Z,5.64
2023-02-28T18:10:22.517Z,5.58
2023-02-28T18:12:51.533Z,5.54
2023-02-28T18:15:21.067Z,5.48
2023-02-28T18:17:48.764Z,5.41
2023-02-28T18:20:15.744Z,5.36
2023-02-28T18:22:43.503Z,5.29
2023-02-28T18:25:16.600Z,5.23
2023-02-28T18:27:59.034Z,5.19
2023-02-28T18:30:31.464Z,5.17
2023-02-28T18:32:59.570Z,5.11
2023-02-28T18:35:35.736Z,5.05
2023-02-28T18:38:22.441Z,4.96
2023-02-28T18:41:03.686Z,4.92
2023-02-28T18:43:32.577Z,4.87
2023-02-28T18:46:08.040Z,4.84
2023-02-28T18:48:35.643Z,4.75
2023-02-28T18:51:14.659Z,4.71
2023-02-28T18:53:43.461Z,4.68
2023-02-28T18:56:13.635Z,4.67
2023-02-28T18:58:40.964Z,4.62
2023-02-28T19:01:22.935Z,4.59
2023-02-28T19:03:50.916Z,4.57
2023-02-28T19:06:18.420Z,4.53
2023-02-28T19:08:44.977Z,4.49
2023-02-28T19:11:16.696Z,4.39
2023-02-28T19:13:43.681Z,4.35
2023-02-28T19:16:11.522Z,4.33
2023-02-28T19:18:38.062Z,4.30
2023-02-28T19:21:07.956Z,4.28
2023-02-28T19:23:34.522Z,4.26
2023-02-28T19:26:01.083Z,4.18
2023-02-28T19:28:30.795Z,4.19
2023-02-28T19:30:57.295Z,4.20
2023-02-28T19:33:23.792Z,4.17
2023-02-28T19:35:50.365Z,4.15
2023-02-28T19:38:17.204Z,4.12
2023-02-28T19:40:43.727Z,4.07
2023-02-28T19:43:10.420Z,4.01
2023-02-28T19:45:38.303Z,3.99
2023-02-28T19:48:05.285Z,3.96
2023-02-28T19:50:31.856Z,3.93
2023-02-28T19:53:00.451Z,3.87
2023-02-28T19:55:27.339Z,3.86
2023-02-28T19:57:53.811Z,3.81
2023-02-28T20:00:20.372Z,3.80
2023-02-28T20:02:46.868Z,3.77
2023-02-28T20:05:13.395Z,3.76
2023-02-28T20:07:39.908Z,3.75
2023-02-28T20:10:06.767Z,3.69
2023-02-28T20:12:33.216Z,3.64
2023-02-28T20:14:59.916Z,3.64
2023-02-28T20:17:28.163Z,3.63
2023-02-28T20:19:54.960Z,3.65
2023-02-28T20:22:21.505Z,3.67
2023-02-28T20:24:48.439Z,3.64
2023-02-28T20:27:15.675Z,3.66
2023-02-28T20:29:42.192Z,3.66
2023-02-28T20:32:08.895Z,3.69
2023-02-28T20:34:35.506Z,3.68
2023-02-28T20:37:02.030Z,3.61
2023-02-28T20:39:28.661Z,3.59
2023-02-28T20:41:55.148Z,3.55
2023-02-28T20:44:21.625Z,3.51
2023-02-28T20:46:48.163Z,3.45
2023-02-28T20:49:15.777Z,3.40
2023-02-28T20:51:42.382Z,3.37
2023-02-28T20:54:11.745Z,3.36
2023-02-28T20:56:38.527Z,3.25
2023-02-28T20:59:05.661Z,3.26
2023-02-28T21:01:32.499Z,3.23
2023-02-28T21:04:06.012Z,3.18
2023-02-28T21:06:39.492Z,3.13
2023-02-28T21:09:08.235Z,3.06
2023-02-28T21:11:36.993Z,2.98
2023-02-28T21:14:10.774Z,2.96
2023-02-28T21:16:38.088Z,2.94
2023-02-28T21:19:05.146Z,2.88
2023-02-28T21:21:43.761Z,2.83
2023-02-28T21:24:11.976Z,2.76
2023-02-28T21:26:39.799Z,2.72
2023-02-28T21:29:06.521Z,2.74
2023-02-28T21:31:34.827Z,2.70
2023-02-28T21:34:03.284Z,2.65
2023-02-28T21:36:33.047Z,2.62
2023-02-28T21:39:02.592Z,2.58
2023-02-28T21:41:29.116Z,2.57
2023-02-28T21:43:56.248Z,2.51
2023-02-28T21:46:25.549Z,2.49
2023-02-28T21:48:52.444Z,2.47
2023-02-28T21:51:21.988Z,2.43
2023-02-28T21:53:49.238Z,2.43
2023-02-28T21:56:21.704Z,2.40
2023-02-28T21:58:48.744Z,2.35
2023-02-28T22:01:20.785Z,2.16
2023-02-28T22:03:48.778Z,2.13
2023-02-28T22:06:19.053Z,2.07
2023-02-28T22:08:48.009Z,2.12
2023-02-28T22:11:16.359Z,2.11
2023-02-28T22:13:43.851Z,2.05
2023-02-28T22:16:15.742Z,2.06
2023-02-28T22:18:43.535Z,2.07
2023-02-28T22:21:12.296Z,2.05
2023-02-28T22:23:40.242Z,2.02
2023-02-28T22:26:09.662Z,1.97
2023-02-28T22:28:36.908Z,1.92
2023-02-28T22:31:42.194Z,1.85
2023-02-28T22:34:11.810Z,1.73
2023-02-28T22:36:41.769Z,1.67
2023-02-28T22:39:08.666Z,1.63
2023-02-28T22:41:35.154Z,1.59
2023-02-28T22:44:03.948Z,1.52
2023-02-28T22:46:33.209Z,1.47
2023-02-28T22:49:03.885Z,1.44
2023-02-28T22:51:30.873Z,1.41
2023-02-28T22:53:58.435Z,1.43
2023-02-28T22:56:27.431Z,1.47
2023-02-28T22:58:56.757Z,1.48
2023-02-28T23:01:26.263Z,1.47
2023-02-28T23:03:53.974Z,1.43
2023-02-28T23:06:26.565Z,1.46
2023-02-28T23:08:57.023Z,1.43
2023-02-28T23:11:32.530Z,1.36
2023-02-28T23:13:59.547Z,1.42
2023-02-28T23:16:31.379Z,1.38
2023-02-28T23:18:59.877Z,1.37
2023-02-28T23:21:27.281Z,1.32
2023-02-28T23:23:54.800Z,1.28
2023-02-28T23:26:21.563Z,1.15
2023-02-28T23:28:48.119Z,1.07
2023-02-28T23:31:15.324Z,0.99
2023-02-28T23:33:44.389Z,0.98
2023-02-28T23:36:13.521Z,1.00
2023-02-28T23:38:41.907Z,1.01
2023-02-28T23:41:10.198Z,1.02
2023-02-28T23:43:37.106Z,0.97
2023-02-28T23:46:04.149Z,0.92
2023-02-28T23:48:30.668Z,0.89
2023-02-28T23:51:01.669Z,0.89
2023-02-28T23:53:30.975Z,0.88
2023-02-28T23:55:57.518Z,0.88
2023-02-28T23:58:24.014Z,0.83
